createdAt,value
2024-03-03T00:01:20.175Z,98766.16
2024-03-03T00:04:12.776Z,98767.78
2024-03-03T00:07:05.560Z,98765.72
2024-03-03T00:09:33.368Z,98770.78
2024-03-03T00:14:53.149Z,98756.31
2024-03-03T00:17:20.699Z,98763.31
2024-03-03T00:20:16.638Z,98763.31
2024-03-03T00:22:43.958Z,98763.72
2024-03-03T00:25:11.415Z,98764.09
2024-03-03T00:27:40.490Z,98762.03
2024-03-03T00:30:08.221Z,98764.88
2024-03-03T00:33:00.882Z,98767.78
2024-03-03T00:35:28.340Z,98763.72
2024-03-03T00:37:55.737Z,98763.47
2024-03-03T00:40:41.034Z,98753.44
2024-03-03T00:43:09.886Z,98751.81
2024-03-03T00:46:02.974Z,98758.78
2024-03-03T00:48:30.339Z,98753.06
2024-03-03T00:50:57.332Z,98749.38
2024-03-03T00:53:25.065Z,98748.13
2024-03-03T00:55:52.946Z,98751.38
2024-03-03T00:58:21.589Z,98756.13
2024-03-03T01:00:48.801Z,98752.63
2024-03-03T01:04:07.593Z,98756.59
2024-03-03T01:06:34.722Z,98752.84
2024-03-03T01:09:02.168Z,98757.38
2024-03-03T01:11:32.397Z,98762.91
2024-03-03T01:14:40.456Z,98754.34
2024-03-03T01:17:07.547Z,98753.56
2024-03-03T01:20:04.085Z,98751.34
2024-03-03T01:22:31.985Z,98747.50
2024-03-03T01:25:06.762Z,98743.81
2024-03-03T01:27:35.729Z,98750.53
2024-03-03T01:30:18.219Z,98750.75
2024-03-03T01:32:57.222Z,98754.44
2024-03-03T01:35:24.777Z,98754.09
2024-03-03T01:37:52.053Z,98742.63
2024-03-03T01:40:19.754Z,98747.13
2024-03-03T01:42:47.525Z,98736.50
2024-03-03T01:45:34.526Z,98742.63
2024-03-03T01:48:03.490Z,98744.72
2024-03-03T01:50:31.117Z,98739.97
2024-03-03T01:53:00.199Z,98744.28
2024-03-03T01:55:27.805Z,98732.22
2024-03-03T01:58:03.926Z,98733.38
2024-03-03T02:00:55.414Z,98726.66
2024-03-03T02:03:22.726Z,98725.63
2024-03-03T02:06:18.357Z,98726.06
2024-03-03T02:08:47.016Z,98729.75
2024-03-03T02:11:15.628Z,98729.19
2024-03-03T02:13:46.082Z,98727.09
2024-03-03T02:16:13.648Z,98727.53
2024-03-03T02:18:40.712Z,98729.63
2024-03-03T02:21:08.258Z,98724.28
2024-03-03T02:23:35.203Z,98720.59
2024-03-03T02:26:12.534Z,98730.44
2024-03-03T02:28:42.530Z,98730.06
2024-03-03T02:31:12.582Z,98728.88
2024-03-03T02:33:57.360Z,98720.31
2024-03-03T02:36:34.955Z,98724.63
2024-03-03T02:39:04.610Z,98721.94
2024-03-03T02:41:32.028Z,98733.47
2024-03-03T02:43:59.033Z,98730.66
2024-03-03T02:46:26.844Z,98727.41
2024-03-03T02:48:57.848Z,98719.88
2024-03-03T02:51:28.021Z,98717.63
2024-03-03T02:53:55.243Z,98722.97
2024-03-03T02:56:23.317Z,98718.09
2024-03-03T02:58:50.802Z,98718.09
2024-03-03T03:01:18.130Z,98718.53
2024-03-03T03:03:45.257Z,98715.28
2024-03-03T03:06:12.549Z,98716.53
2024-03-03T03:08:45.952Z,98712.53
2024-03-03T03:11:16.809Z,98716.44
2024-03-03T03:13:45.275Z,98722.22
2024-03-03T03:16:21.263Z,98724.47
2024-03-03T03:19:16.469Z,98724.72
2024-03-03T03:21:46.179Z,98711.84
2024-03-03T03:24:13.284Z,98711.03
2024-03-03T03:26:48.022Z,98713.28
2024-03-03T03:29:15.395Z,98713.16
2024-03-03T03:31:42.739Z,98709.09
2024-03-03T03:34:10.177Z,98703.41
2024-03-03T03:37:12.803Z,98712.38
2024-03-03T03:39:41.028Z,98716.91
2024-03-03T03:42:33.586Z,98718.94
2024-03-03T03:45:26.179Z,98720.19
2024-03-03T03:47:55.633Z,98735.72
2024-03-03T03:50:22.769Z,98714.47
2024-03-03T03:52:50.795Z,98716.13
2024-03-03T03:55:17.877Z,98714.88
2024-03-03T03:57:45.218Z,98721.44
2024-03-03T04:00:28.056Z,98726.75
2024-03-03T04:03:20.835Z,98721.25
2024-03-03T04:05:48.194Z,98723.91
2024-03-03T04:08:15.381Z,98727.56
2024-03-03T04:10:48.807Z,98737.19
2024-03-03T04:13:16.128Z,98732.47
2024-03-03T04:15:43.343Z,98729.22
2024-03-03T04:18:11.973Z,98732.53
2024-03-03T04:20:39.017Z,98730.06
2024-03-03T04:23:06.319Z,98733.56
2024-03-03T04:25:33.314Z,98727.66
2024-03-03T04:28:00.697Z,98718.69
2024-03-03T04:30:29.432Z,98718.25
2024-03-03T04:32:56.854Z,98718.25
2024-03-03T04:35:23.817Z,98723.19
2024-03-03T04:37:51.088Z,98717.50
2024-03-03T04:40:47.493Z,98728.13
2024-03-03T04:43:15.021Z,98728.94
2024-03-03T04:45:43.052Z,98730.19
2024-03-03T04:48:10.856Z,98724.25
2024-03-03T04:50:41.301Z,98726.13
2024-03-03T04:53:08.536Z,98726.56
2024-03-03T04:56:03.150Z,98726.16
2024-03-03T04:58:45.215Z,98725.38
2024-03-03T05:01:12.377Z,98726.63
2024-03-03T05:05:20.131Z,98720.50
2024-03-03T05:08:12.294Z,98717.66
2024-03-03T05:13:55.606Z,98720.25
2024-03-03T05:16:48.632Z,98721.06
2024-03-03T05:19:41.283Z,98721.44
2024-03-03T05:22:08.784Z,98721.03
2024-03-03T05:25:01.716Z,98712.03
2024-03-03T05:27:28.991Z,98718.16
2024-03-03T05:30:49.598Z,98719.38
2024-03-03T05:33:16.881Z,98723.09
2024-03-03T05:35:53.114Z,98714.06
2024-03-03T05:38:20.380Z,98721.44
2024-03-03T05:40:47.645Z,98712.47
2024-03-03T05:43:14.699Z,98711.22
2024-03-03T05:46:07.967Z,98712.84
2024-03-03T05:48:40.567Z,98715.28
2024-03-03T05:51:13.001Z,98718.97
2024-03-03T05:54:03.923Z,98721.03
2024-03-03T05:56:31.336Z,98721.03
2024-03-03T05:59:28.789Z,98721.84
2024-03-03T06:01:56.253Z,98729.59
2024-03-03T06:04:23.276Z,98722.66
2024-03-03T06:07:17.631Z,98724.69
2024-03-03T06:09:45.117Z,98720.22
2024-03-03T06:12:12.652Z,98721.03
2024-03-03T06:17:24.324Z,98712.47
2024-03-03T06:19:54.269Z,98716.72
2024-03-03T06:22:21.696Z,98721.03
2024-03-03T06:24:49.300Z,98718.97
2024-03-03T06:30:04.673Z,98730.81
2024-03-03T06:32:33.167Z,98728.28
2024-03-03T06:35:00.945Z,98729.50
2024-03-03T06:37:28.871Z,98727.03
2024-03-03T06:43:12.063Z,98713.03
2024-03-03T06:45:39.562Z,98722.41
2024-03-03T06:48:58.187Z,98717.84
2024-03-03T06:51:28.676Z,98720.97
2024-03-03T06:53:56.292Z,98722.31
2024-03-03T06:56:30.574Z,98726.47
2024-03-03T06:59:28.278Z,98722.66
2024-03-03T07:05:02.655Z,98731.81
2024-03-03T07:10:25.989Z,98732.72
2024-03-03T07:13:04.422Z,98724.75
2024-03-03T07:15:34.506Z,98733.16
2024-03-03T07:18:06.260Z,98734.16
2024-03-03T07:20:33.720Z,98731.72
2024-03-03T07:23:20.957Z,98727.28
2024-03-03T07:25:49.991Z,98719.63
2024-03-03T07:28:17.047Z,98716.53
2024-03-03T07:30:44.409Z,98723.75
2024-03-03T07:33:11.514Z,98728.63
2024-03-03T07:35:38.918Z,98721.31
2024-03-03T07:38:06.328Z,98724.31
2024-03-03T07:40:38.187Z,98724.09
2024-03-03T07:43:06.484Z,98728.84
2024-03-03T07:45:34.032Z,98726.13
2024-03-03T07:48:01.119Z,98722.66
2024-03-03T07:50:28.597Z,98719.16
2024-03-03T07:52:55.987Z,98714.69
2024-03-03T07:55:23.363Z,98718.13
2024-03-03T07:57:50.681Z,98717.97
2024-03-03T08:00:18.429Z,98720.09
2024-03-03T08:02:45.419Z,98720.28
2024-03-03T08:05:12.993Z,98719.09
2024-03-03T08:07:47.876Z,98722.19
2024-03-03T08:10:15.473Z,98716.44
2024-03-03T08:12:42.477Z,98714.81
2024-03-03T08:15:10.520Z,98713.19
2024-03-03T08:17:37.567Z,98711.38
2024-03-03T08:20:05.818Z,98706.84
2024-03-03T08:23:02.091Z,98709.81
2024-03-03T08:25:55.417Z,98703.63
2024-03-03T08:28:22.563Z,98699.31
2024-03-03T08:31:06.461Z,98699.03
2024-03-03T08:33:33.570Z,98697.41
2024-03-03T08:36:00.993Z,98699.09
2024-03-03T08:38:29.870Z,98694.38
2024-03-03T08:40:57.253Z,98688.34
2024-03-03T08:43:24.368Z,98687.72
2024-03-03T08:49:01.151Z,98681.03
2024-03-03T08:51:41.075Z,98678.00
2024-03-03T08:54:23.310Z,98681.28
2024-03-03T08:56:53.912Z,98678.03
2024-03-03T08:59:20.986Z,98674.81
2024-03-03T09:01:48.557Z,98670.00
2024-03-03T09:04:15.800Z,98671.31
2024-03-03T09:07:09.298Z,98673.75
2024-03-03T09:09:47.409Z,98662.47
2024-03-03T09:12:17.559Z,98662.44
2024-03-03T09:15:10.050Z,98661.88
2024-03-03T09:18:02.819Z,98657.09
2024-03-03T09:20:29.823Z,98649.28
2024-03-03T09:22:58.420Z,98657.28
2024-03-03T09:25:59.301Z,98657.03
2024-03-03T09:28:27.402Z,98646.84
2024-03-03T09:30:55.777Z,98646.31
2024-03-03T09:33:26.917Z,98643.63
2024-03-03T09:35:54.034Z,98648.47
2024-03-03T09:38:24.958Z,98638.25
2024-03-03T09:40:52.546Z,98637.97
2024-03-03T09:43:28.798Z,98633.91
2024-03-03T09:45:56.381Z,98634.44
2024-03-03T09:48:40.331Z,98645.16
2024-03-03T09:51:35.075Z,98644.03
2024-03-03T09:54:32.226Z,98648.28
2024-03-03T09:57:22.130Z,98639.84
2024-03-03T09:59:52.666Z,98638.50
2024-03-03T10:02:46.196Z,98640.13
2024-03-03T10:05:16.922Z,98634.69
2024-03-03T10:07:52.404Z,98637.34
2024-03-03T10:10:49.376Z,98632.72
2024-03-03T10:13:19.854Z,98627.06
2024-03-03T10:16:15.503Z,98628.16
2024-03-03T10:21:59.736Z,98618.56
2024-03-03T10:24:37.370Z,98620.91
2024-03-03T10:27:19.242Z,98611.56
2024-03-03T10:29:52.543Z,98604.13
2024-03-03T10:32:47.904Z,98603.13
2024-03-03T10:35:44.669Z,98597.72
2024-03-03T10:38:12.172Z,98595.88
2024-03-03T10:40:46.352Z,98592.31
2024-03-03T10:43:13.473Z,98589.03
2024-03-03T10:46:07.179Z,98584.88
2024-03-03T10:48:35.163Z,98577.00
2024-03-03T10:51:27.703Z,98572.66
2024-03-03T10:54:04.909Z,98571.41
2024-03-03T10:56:41.833Z,98564.88
2024-03-03T10:59:15.624Z,98569.09
2024-03-03T11:01:45.667Z,98565.69
2024-03-03T11:04:14.923Z,98559.41
2024-03-03T11:06:43.960Z,98553.34
2024-03-03T11:09:12.724Z,98555.41
2024-03-03T11:12:38.412Z,98547.44
2024-03-03T11:15:48.637Z,98554.09
2024-03-03T11:18:25.761Z,98540.78
2024-03-03T11:20:59.368Z,98547.38
2024-03-03T11:24:42.779Z,98535.47
2024-03-03T11:27:23.798Z,98528.34
2024-03-03T11:30:45.540Z,98527.69
2024-03-03T11:33:14.195Z,98525.22
2024-03-03T11:35:51.117Z,98519.22
2024-03-03T11:38:18.480Z,98521.63
2024-03-03T11:41:39.884Z,98509.13
2024-03-03T11:44:53.337Z,98506.00
2024-03-03T11:47:38.914Z,98499.22
2024-03-03T11:50:37.000Z,98494.22
2024-03-03T11:53:11.192Z,98498.50
2024-03-03T11:56:17.956Z,98496.22
2024-03-03T11:58:49.384Z,98500.69
2024-03-03T12:01:30.273Z,98494.66
2024-03-03T12:04:00.685Z,98490.25
2024-03-03T12:06:53.574Z,98493.06
2024-03-03T12:09:23.194Z,98485.03
2024-03-03T12:12:15.834Z,98496.56
2024-03-03T12:14:43.170Z,98485.25
2024-03-03T12:17:20.847Z,98484.69
2024-03-03T12:19:48.519Z,98479.56
2024-03-03T12:22:15.986Z,98471.44
2024-03-03T12:24:57.195Z,98464.34
2024-03-03T12:27:26.270Z,98470.47
2024-03-03T12:30:10.365Z,98463.81
2024-03-03T12:32:38.375Z,98453.41
2024-03-03T12:35:06.000Z,98453.38
2024-03-03T12:37:42.489Z,98452.19
2024-03-03T12:40:35.068Z,98447.16
2024-03-03T12:43:07.808Z,98451.78
2024-03-03T12:45:34.869Z,98440.22
2024-03-03T12:48:13.108Z,98445.47
2024-03-03T12:51:06.450Z,98436.72
2024-03-03T12:53:40.810Z,98436.34
2024-03-03T12:56:32.025Z,98423.13
2024-03-03T12:59:03.180Z,98428.59
2024-03-03T13:01:56.257Z,98431.38
2024-03-03T13:04:31.114Z,98420.25
2024-03-03T13:07:00.680Z,98419.25
2024-03-03T13:09:41.005Z,98415.75
2024-03-03T13:12:08.248Z,98424.56
2024-03-03T13:14:35.794Z,98428.53
2024-03-03T13:19:57.881Z,98412.94
2024-03-03T13:22:25.074Z,98412.50
2024-03-03T13:25:21.677Z,98416.81
2024-03-03T13:28:43.026Z,98417.09
2024-03-03T13:31:10.493Z,98408.13
2024-03-03T13:33:44.444Z,98403.97
2024-03-03T13:36:14.002Z,98396.88
2024-03-03T13:38:46.228Z,98402.84
2024-03-03T13:41:16.276Z,98401.09
2024-03-03T13:43:43.646Z,98405.19
2024-03-03T13:46:21.079Z,98403.53
2024-03-03T13:48:48.134Z,98399.03
2024-03-03T13:51:41.027Z,98402.81
2024-03-03T13:54:40.584Z,98395.22
2024-03-03T13:57:43.800Z,98401.50
2024-03-03T14:00:15.950Z,98395.00
2024-03-03T14:02:45.380Z,98393.63
2024-03-03T14:05:13.626Z,98392.00
2024-03-03T14:07:44.338Z,98391.94
2024-03-03T14:10:29.956Z,98388.53
2024-03-03T14:13:05.582Z,98395.34
2024-03-03T14:15:38.931Z,98392.50
2024-03-03T14:18:24.010Z,98388.59
2024-03-03T14:20:52.008Z,98395.13
2024-03-03T14:23:28.634Z,98404.91
2024-03-03T14:25:57.605Z,98390.34
2024-03-03T14:28:25.907Z,98389.16
2024-03-03T14:30:56.177Z,98401.97
2024-03-03T14:33:28.580Z,98396.97
2024-03-03T14:35:57.010Z,98391.13
2024-03-03T14:38:25.049Z,98392.34
2024-03-03T14:40:52.547Z,98392.91
2024-03-03T14:43:21.398Z,98393.97
2024-03-03T14:45:52.367Z,98389.72
2024-03-03T14:48:19.526Z,98391.78
2024-03-03T14:50:52.324Z,98392.47
2024-03-03T14:53:19.646Z,98384.50
2024-03-03T14:58:39.368Z,98388.66
2024-03-03T15:01:21.315Z,98382.13
2024-03-03T15:03:55.322Z,98383.13
2024-03-03T15:06:22.490Z,98386.69
2024-03-03T15:08:51.394Z,98377.06
2024-03-03T15:11:18.801Z,98378.00
2024-03-03T15:14:11.995Z,98378.81
2024-03-03T15:16:39.729Z,98389.66
2024-03-03T15:19:30.414Z,98383.28
2024-03-03T15:21:58.176Z,98383.25
2024-03-03T15:24:25.561Z,98378.41
2024-03-03T15:26:58.612Z,98377.78
2024-03-03T15:29:58.983Z,98378.44
2024-03-03T15:32:26.713Z,98376.88
2024-03-03T15:34:56.066Z,98376.31
2024-03-03T15:37:25.445Z,98375.31
2024-03-03T15:39:52.880Z,98375.84
2024-03-03T15:42:23.885Z,98376.38
2024-03-03T15:44:51.226Z,98374.78
2024-03-03T15:47:18.845Z,98375.84
2024-03-03T15:53:18.737Z,98378.31
2024-03-03T15:55:47.933Z,98375.66
2024-03-03T15:58:15.500Z,98374.84
2024-03-03T16:00:44.177Z,98375.88
2024-03-03T16:03:14.386Z,98378.03
2024-03-03T16:05:45.764Z,98370.50
2024-03-03T16:08:13.693Z,98380.28
2024-03-03T16:10:47.717Z,98372.75
2024-03-03T16:13:26.152Z,98375.00
2024-03-03T16:15:54.048Z,98385.75
2024-03-03T16:18:21.662Z,98377.69
2024-03-03T16:20:48.828Z,98384.72
2024-03-03T16:23:16.059Z,98382.00
2024-03-03T16:25:45.942Z,98382.03
2024-03-03T16:28:14.026Z,98378.81
2024-03-03T16:31:06.765Z,98389.09
2024-03-03T16:33:38.094Z,98387.22
2024-03-03T16:37:02.240Z,98383.50
2024-03-03T16:39:45.810Z,98384.91
2024-03-03T16:42:13.051Z,98390.00
2024-03-03T16:44:40.946Z,98390.56
2024-03-03T16:47:15.593Z,98398.91
2024-03-03T16:49:45.298Z,98391.38
2024-03-03T16:52:12.409Z,98391.91
2024-03-03T16:54:48.918Z,98398.09
2024-03-03T16:57:49.655Z,98398.38
2024-03-03T17:01:33.668Z,98401.06
2024-03-03T17:04:01.673Z,98405.66
2024-03-03T17:10:27.032Z,98414.56
2024-03-03T17:12:58.253Z,98413.97
2024-03-03T17:15:52.476Z,98421.50
2024-03-03T17:18:21.270Z,98413.44
2024-03-03T17:20:48.696Z,98418.31
2024-03-03T17:23:17.432Z,98420.47
2024-03-03T17:25:46.254Z,98421.00
2024-03-03T17:29:03.428Z,98417.25
2024-03-03T17:35:29.208Z,98430.69
2024-03-03T17:37:56.930Z,98428.53
2024-03-03T17:41:02.169Z,98435.25
2024-03-03T17:43:31.913Z,98432.28
2024-03-03T17:47:14.336Z,98432.81
2024-03-03T17:49:43.228Z,98438.72
2024-03-03T17:52:21.665Z,98429.03
2024-03-03T17:57:33.391Z,98440.88
2024-03-03T18:00:35.879Z,98440.31
2024-03-03T18:03:03.389Z,98444.06
2024-03-03T18:05:37.532Z,98452.13
2024-03-03T18:08:05.879Z,98446.22
2024-03-03T18:10:58.943Z,98445.16
2024-03-03T18:13:51.960Z,98454.22
2024-03-03T18:16:19.882Z,98452.31
2024-03-03T18:18:46.894Z,98448.28
2024-03-03T18:21:14.961Z,98447.78
2024-03-03T18:23:42.326Z,98449.41
2024-03-03T18:26:13.067Z,98454.75
2024-03-03T18:28:57.070Z,98455.28
2024-03-03T18:32:41.096Z,98461.47
2024-03-03T18:35:25.646Z,98457.91
2024-03-03T18:38:25.206Z,98459.50
2024-03-03T18:40:53.144Z,98462.75
2024-03-03T18:43:45.621Z,98468.63
2024-03-03T18:46:13.069Z,98462.13
2024-03-03T18:48:52.887Z,98474.41
2024-03-03T18:51:20.425Z,98467.72
2024-03-03T18:53:48.741Z,98468.53
2024-03-03T19:06:07.841Z,98460.53
2024-03-03T19:11:59.226Z,98463.97
2024-03-03T19:14:55.876Z,98470.34
2024-03-03T19:17:51.706Z,98479.16
2024-03-03T19:23:32.544Z,98477.28
2024-03-03T19:26:55.308Z,98486.13
2024-03-03T19:29:24.020Z,98480.50
2024-03-03T19:31:51.428Z,98481.59
2024-03-03T19:34:19.032Z,98479.16
2024-03-03T19:36:54.895Z,98476.75
2024-03-03T19:39:49.543Z,98481.81
2024-03-03T19:46:07.906Z,98478.59
2024-03-03T19:48:35.683Z,98479.09
2024-03-03T19:51:03.289Z,98476.63
2024-03-03T20:03:40.746Z,98471.44
2024-03-03T20:06:10.471Z,98474.09
2024-03-03T20:08:37.892Z,98473.00
2024-03-03T20:11:08.132Z,98478.94
2024-03-03T20:13:48.464Z,98474.09
2024-03-03T20:16:16.012Z,98476.72
2024-03-03T20:18:43.615Z,98468.38
2024-03-03T20:21:11.224Z,98475.34
2024-03-03T20:23:38.882Z,98472.84
2024-03-03T20:26:06.307Z,98478.97
2024-03-03T20:28:33.573Z,98481.66
2024-03-03T20:31:01.158Z,98483.56
2024-03-03T20:33:31.312Z,98485.13
2024-03-03T20:36:23.777Z,98479.25
2024-03-03T20:39:00.240Z,98484.03
2024-03-03T20:41:28.017Z,98480.16
2024-03-03T20:43:56.513Z,98484.38
2024-03-03T20:49:45.950Z,98476.41
2024-03-03T20:52:22.896Z,98473.16
2024-03-03T21:34:27.177Z,98479.19
2024-03-03T21:36:55.454Z,98482.84
2024-03-03T21:39:23.489Z,98485.47
2024-03-03T21:41:51.036Z,98474.88
2024-03-03T21:44:18.138Z,98482.34
2024-03-03T21:46:45.482Z,98478.69
2024-03-03T21:49:12.737Z,98479.75
2024-03-03T21:51:40.538Z,98481.38
2024-03-03T21:54:08.411Z,98491.28
2024-03-03T21:56:36.249Z,98487.22
2024-03-03T21:59:03.418Z,98494.69
2024-03-03T22:01:31.371Z,98498.50
2024-03-03T22:03:58.465Z,98495.81
2024-03-03T22:06:26.316Z,98489.31
2024-03-03T22:08:56.709Z,98481.72
2024-03-03T22:11:25.850Z,98484.66
2024-03-03T22:13:52.894Z,98481.69
2024-03-03T22:16:20.580Z,98482.22
2024-03-03T22:19:15.145Z,98477.91
2024-03-03T22:21:42.983Z,98484.91
2024-03-03T22:24:10.353Z,98480.09
2024-03-03T22:26:40.886Z,98484.97
2024-03-03T22:29:10.666Z,98480.38
2024-03-03T22:31:38.464Z,98483.38
2024-03-03T22:34:05.901Z,98481.41
2024-03-03T22:36:33.136Z,98474.25
2024-03-03T22:39:00.283Z,98475.28
2024-03-03T22:41:27.618Z,98474.47
2024-03-03T22:47:19.179Z,98479.19
2024-03-03T22:49:46.784Z,98473.84
2024-03-03T22:52:13.993Z,98473.03
2024-03-03T22:54:41.428Z,98479.38
2024-03-03T22:57:09.043Z,98475.03
2024-03-03T22:59:37.213Z,98482.50
2024-03-03T23:02:05.289Z,98481.38
2024-03-03T23:04:33.824Z,98482.94
2024-03-03T23:07:01.095Z,98482.38
2024-03-03T23:09:29.647Z,98486.50
2024-03-03T23:11:57.674Z,98484.72
2024-03-03T23:14:25.030Z,98475.16
2024-03-03T23:16:52.761Z,98485.28
2024-03-03T23:19:20.557Z,98484.25
2024-03-03T23:21:47.648Z,98482.13
2024-03-03T23:24:15.640Z,98481.31
2024-03-03T23:26:44.740Z,98471.91
2024-03-03T23:29:12.910Z,98473.69
2024-03-03T23:31:40.387Z,98472.59
2024-03-03T23:34:07.812Z,98473.88
2024-03-03T23:36:34.811Z,98481.34
2024-03-03T23:39:02.450Z,98471.63
2024-03-03T23:41:29.795Z,98468.88
2024-03-03T23:43:58.274Z,98472.06
2024-03-03T23:46:25.817Z,98477.91
2024-03-03T23:48:53.543Z,98477.56
2024-03-03T23:51:20.716Z,98473.78
2024-03-03T23:53:48.251Z,98469.75
2024-03-03T23:56:15.298Z,98478.78
2024-03-03T23:58:43.301Z,98480.34
